Startpagina
METAR-TAF:

METAR-TAF

Vliegvelden :

Beja, Portugal

breedte: 38-04-40N, lengte: 007-55-57W, hoogte: 193 m

Actueel weer

Dit bericht is 19 minuten geleden gemaakt, om 09:00 UTC
Wind 12 kt uit het noordwesten
Temperatuur 21°C
Vochtigheid 78%
Druk 1016 hPa
Zicht 10 km of meer
Gebroken wolken op 1500 ft

METAR: LPBJ 250900Z 31012KT 9999 BKN015 21/17 Q1016

Tijdstip: 10:19 (09:19 UTC)

Verwachting

Dit bericht is 1 uur en het 6 minuten geleden gemaakt, om 08:13 UTC
Verwachting geldig van 25 om 08 UTC tot 26 om 06 UTC
Wind 10 kt uit het noordwesten
Gebroken wolken op 900 ft
Wijzigt naar
van 25 om 09 UTC tot 25 om 12 UTC
Gebroken wolken op 3000 ft
Tijdelijke
van 25 om 14 UTC tot 25 om 20 UTC
Wind 12 kt uit het noordnoordwesten met uitschieters tot 25 kt
Kans 30%
van 26 om 03 UTC tot 26 om 06 UTC
Zicht: 3000 m
Gebroken wolken op 600 ft
mistbanken

TAF: LPBJ 250813Z 2508/2606 32010KT BKN009 BECMG 2509/2512 BKN030 TEMPO 2514/2520 33012G25KT PROB30 2603/2606 3000 BCFG BKN006

Waarnemingen en weersverwachtingen van meer dan 4000 vliegvelden (METAR en TAF).

De beschikbare stations zijn de gele en rode punten op de kaart.

Ga met uw muis naar het station om de naam te zien.

Klik dan om waarnemingen en weersverwachtingen te zien.

kaart wijzigen: klik op de groene knoppen met een zwart kruis om in te zoomen, op de groene knop met een streepje om uit te zoomen of op de groene pijlen voor aangrenzende kaarten.


METAR-TAF: